Data for 02/02/2018

Time Sea-Level Adjusted Pressure Absolute Pressure Temperature Relative Humidity Dew Point   
(mb) (inHg) (mb) (inHg) (C) (F) (%) (C) (F)
00:05 1021 30.15 850 25.1 -0.6 30.9 55 -8.5 16.8
00:10 1021 30.15 850 25.1 -0.8 30.5 55 -8.7 16.3
00:15 1021 30.15 850 25.1 -1 30.2 57 -8.6 16.6
00:20 1021 30.15 850 25.1 -1 30.1 56 -8.7 16.4
00:25 1021 30.15 850 25.1 -1 30.3 58 -8.2 17.2
00:30 1020 30.12 850 25.1 -1.1 30.1 58 -8.4 16.9
00:35 1020 30.12 850 25.1 -1.2 29.9 58 -8.4 17
00:40 1020 30.12 850 25.1 -1.3 29.7 58 -8.4 16.8
00:45 1020 30.12 850 25.1 -1.3 29.7 59 -8.2 17.2
00:50 1020 30.12 849 25.07 -1.4 29.5 60 -8.2 17.2
00:55 1020 30.12 849 25.07 -1.4 29.4 61 -8 17.6
01:00 1020 30.12 849 25.07 -1.4 29.4 61 -8.1 17.5
01:05 1020 30.12 849 25.07 -1.3 29.7 58 -8.5 16.7
01:10 1020 30.12 849 25.07 -1 30.2 57 -8.4 16.9
01:15 1020 30.12 849 25.07 -1 30.2 58 -8.3 17.1
01:20 1020 30.12 849 25.07 -1 30.2 58 -8.3 17.1
01:25 1020 30.12 849 25.07 -1 30.2 59 -8.1 17.5
01:30 1020 30.12 849 25.07 -1 30.1 59 -8.1 17.3
01:35 1020 30.12 849 25.07 -1.1 30.1 60 -8 17.7
01:40 1020 30.12 849 25.07 -1.2 29.9 61 -7.8 18
01:45 1020 30.12 849 25.07 -1.2 29.8 60 -7.9 17.8
01:50 1020 30.12 849 25.07 -1 30.1 60 -7.9 17.8
01:55 1020 30.12 849 25.07 -0.9 30.5 58 -8 17.6
02:00 1020 30.12 849 25.07 -0.7 30.7 59 -7.7 18.2
02:05 1019 30.09 849 25.07 -0.9 30.5 61 -7.4 18.7
02:10 1019 30.09 849 25.07 -1.1 30 61 -7.7 18.1
02:15 1019 30.09 849 25.07 -1.1 30 59 -8.1 17.4
02:20 1019 30.09 849 25.07 -0.9 30.4 59 -7.8 17.9
02:25 1019 30.09 848 25.04 -1 30.3 61 -7.7 18.2
02:30 1019 30.09 848 25.04 -1 30.2 61 -7.7 18.1
02:35 1019 30.09 848 25.04 -1 30.2 59 -8.1 17.5
02:40 1019 30.09 848 25.04 -0.6 31 58 -7.9 17.7
02:45 1019 30.09 848 25.04 -0.5 31 58 -7.7 18.1
02:50 1019 30.09 848 25.04 -0.4 31.3 56 -8.1 17.5
02:55 1019 30.09 848 25.04 -0.1 31.7 55 -8.1 17.5
03:00 1019 30.09 848 25.04 -0 32 56 -7.7 18.1
03:05 1019 30.09 848 25.04 -0.3 31.5 58 -7.6 18.4
03:10 1019 30.09 848 25.04 -0.2 31.6 57 -7.8 17.9
03:15 1019 30.09 848 25.04 -0.1 31.8 56 -7.7 18.1
03:20 1019 30.09 848 25.04 -0.1 31.9 56 -7.7 18.1
03:25 1019 30.09 848 25.04 0 32.1 56 -7.8 18
03:30 1018 30.06 848 25.04 0.1 32.1 55 -7.9 17.8
03:35 1018 30.06 848 25.04 0.2 32.3 55 -7.8 18
03:40 1018 30.06 848 25.04 0.1 32.3 54 -8.2 17.3
03:45 1018 30.06 848 25.04 0.2 32.4 55 -7.7 18.1
03:50 1018 30.06 847 25.01 0.1 32.3 56 -7.6 18.3
03:55 1018 30.06 847 25.01 0 32.1 56 -7.7 18.2
04:00 1018 30.06 847 25.01 0.1 32.2 56 -7.6 18.3
04:05 1018 30.06 847 25.01 0.1 32.1 58 -7.3 18.8
04:10 1018 30.06 847 25.01 -0.1 31.9 58 -7.3 18.9
04:15 1018 30.06 847 25.01 -0.1 31.9 58 -7.3 18.9
04:20 1018 30.06 847 25.01 0 32 59 -7.2 19.1
04:25 1018 30.06 847 25.01 0.3 32.5 57 -7.2 19
04:30 1018 30.06 847 25.01 0.4 32.7 57 -7.1 19.1
04:35 1018 30.06 847 25.01 0.6 33 57 -7.1 19.2
04:40 1018 30.06 847 25.01 0.7 33.2 57 -6.9 19.6
04:45 1018 30.06 847 25.01 0.5 32.9 59 -6.6 20.2
04:50 1018 30.06 847 25.01 0.2 32.4 61 -6.5 20.3
04:55 1018 30.06 847 25.01 0.2 32.3 60 -6.6 20.1
05:00 1018 30.06 847 25.01 0.1 32.2 59 -6.9 19.6
05:05 1018 30.06 847 25.01 0.3 32.6 59 -6.7 19.9
05:10 1018 30.06 847 25.01 0.4 32.7 60 -6.5 20.3
05:15 1018 30.06 847 25.01 0.4 32.7 61 -6.4 20.5
05:20 1018 30.06 847 25.01 0.3 32.6 61 -6.2 20.8
05:25 1018 30.06 847 25.01 0.3 32.6 61 -6.3 20.7
05:30 1018 30.06 847 25.01 0.3 32.5 62 -6.2 20.9
05:35 1018 30.06 847 25.01 0.3 32.6 60 -6.5 20.4
05:40 1018 30.06 847 25.01 0.5 33 60 -6.4 20.5
05:45 1018 30.06 847 25.01 0.7 33.2 59 -6.4 20.4
05:50 1018 30.06 847 25.01 0.6 33.2 59 -6.4 20.5
05:55 1018 30.06 847 25.01 0.6 33.2 58 -6.6 20.1
06:00 1018 30.06 847 25.01 0.6 33.1 59 -6.6 20.2
06:05 1018 30.06 847 25.01 0.5 33 61 -6.2 20.9
06:10 1018 30.06 847 25.01 0.5 32.9 63 -5.9 21.4
06:15 1017 30.03 847 25.01 0.3 32.6 64 -5.8 21.5
06:20 1017 30.03 847 25.01 0.2 32.4 63 -6 21.3
06:25 1017 30.03 847 25.01 0.2 32.4 63 -6 21.3
06:30 1018 30.06 847 25.01 0.4 32.6 63 -5.9 21.3
06:35 1018 30.06 847 25.01 0.5 32.9 61 -6.1 21
06:40 1018 30.06 847 25.01 0.6 33.1 61 -6 21.1
06:45 1018 30.06 847 25.01 0.6 33 60 -6.3 20.7
06:50 1018 30.06 847 25.01 0.7 33.3 60 -6.2 20.8
06:55 1018 30.06 847 25.01 1 33.7 62 -5.6 21.9
07:00 1018 30.06 847 25.01 1.2 34.2 66 -4.3 24.2
07:05 1018 30.06 847 25.01 1.2 34.1 67 -4.2 24.4
07:10 1018 30.06 847 25.01 1.1 33.9 66 -4.6 23.7
07:15 1018 30.06 847 25.01 1.1 33.9 65 -4.7 23.6
07:20 1018 30.06 847 25.01 1.1 34 67 -4.4 24
07:25 1018 30.06 847 25.01 1 33.8 65 -4.8 23.4
07:30 1018 30.06 848 25.04 0.9 33.6 67 -4.5 23.8
07:35 1018 30.06 848 25.04 0.6 33 69 -4.5 23.8
07:40 1018 30.06 848 25.04 0.5 32.9 68 -4.8 23.3
07:45 1019 30.09 848 25.04 0.6 33 69 -4.4 24
07:50 1019 30.09 848 25.04 0.5 32.9 70 -4.3 24.2
07:55 1019 30.09 848 25.04 0.1 32.3 74 -4 24.8
08:00 1019 30.09 848 25.04 -0.1 31.9 76 -3.8 25.1
08:05 1019 30.09 848 25.04 -0.2 31.7 77 -3.8 25.2
08:10 1019 30.09 848 25.04 -0.1 31.8 78 -3.5 25.7
08:15 1019 30.09 848 25.04 -0.1 31.9 78 -3.5 25.7
08:20 1019 30.09 848 25.04 0.1 32.2 76 -3.5 25.6
08:25 1019 30.09 848 25.04 0.2 32.4 74 -3.8 25.2
08:30 1019 30.09 848 25.04 0.3 32.5 74 -3.8 25.1
08:35 1019 30.09 848 25.04 0.4 32.7 74 -3.8 25.2
08:40 1019 30.09 848 25.04 0.5 32.8 75 -3.5 25.7
08:45 1019 30.09 849 25.07 0.5 32.9 75 -3.5 25.8
08:50 1019 30.09 849 25.07 0.7 33.2 75 -3.3 26
08:55 1020 30.12 849 25.07 0.9 33.5 73 -3.4 25.8
09:00 1020 30.12 849 25.07 0.9 33.6 74 -3.2 26.2
09:05 1020 30.12 849 25.07 1.2 34.1 72 -3.2 26.2
09:10 1019 30.09 849 25.07 1.2 34.1 72 -3.4 25.9
09:15 1019 30.09 849 25.07 1.2 34.1 71 -3.5 25.6
09:20 1020 30.12 849 25.07 1.2 34.1 70 -3.8 25.2
09:25 1020 30.12 849 25.07 1.3 34.4 68 -3.8 25.1
09:30 1020 30.12 849 25.07 1.4 34.5 68 -3.9 24.9
09:35 1020 30.12 849 25.07 1.4 34.5 67 -4.1 24.7
09:40 1020 30.12 849 25.07 1.6 34.9 66 -4 24.8
09:45 1020 30.12 849 25.07 1.9 35.4 64 -4.1 24.6
09:50 1019 30.09 849 25.07 2.1 35.8 64 -3.9 25
09:55 1019 30.09 849 25.07 2.3 36.2 65 -3.7 25.4
10:00 1019 30.09 849 25.07 2.7 36.8 62 -3.8 25.2
10:05 1019 30.09 849 25.07 2.7 36.9 64 -3.4 25.8
10:10 1019 30.09 848 25.04 2.8 37 64 -3.4 25.8
10:15 1019 30.09 848 25.04 2.9 37.2 63 -3.5 25.7
10:20 1019 30.09 848 25.04 3.2 37.7 63 -3.2 26.2
10:25 1019 30.09 848 25.04 3.2 37.8 62 -3.3 26
10:30 1019 30.09 848 25.04 3.4 38.1 62 -3.3 26.1
10:35 1019 30.09 848 25.04 3.5 38.4 61 -3.2 26.2
10:40 1019 30.09 848 25.04 3.8 38.8 61 -3 26.6
10:45 1019 30.09 848 25.04 4.2 39.6 60 -2.8 26.9
10:50 1019 30.09 848 25.04 4.7 40.5 59 -2.6 27.3
10:55 1019 30.09 848 25.04 5 41 58 -2.5 27.5
11:00 1019 30.09 848 25.04 4.9 40.8 59 -2.5 27.6
11:05 1019 30.09 848 25.04 5.2 41.4 57 -2.6 27.3
11:10 1019 30.09 848 25.04 5.5 41.9 56 -2.7 27.2
11:15 1019 30.09 848 25.04 5.9 42.7 55 -2.5 27.5
11:20 1019 30.09 848 25.04 6 42.8 55 -2.3 27.9
11:25 1019 30.09 848 25.04 6.1 43 55 -2.3 27.8
11:30 1019 30.09 848 25.04 6.2 43.1 55 -2.3 27.9
11:35 1019 30.09 848 25.04 6.4 43.5 53 -2.5 27.5
11:40 1019 30.09 848 25.04 6.4 43.6 54 -2.2 28
11:45 1019 30.09 848 25.04 6.7 44.1 54 -2 28.3
11:50 1019 30.09 848 25.04 6.4 43.5 55 -2 28.4
11:55 1019 30.09 848 25.04 6.7 44.1 53 -2.3 27.9
12:00 1019 30.09 848 25.04 6.8 44.2 52 -2.5 27.6
12:05 1019 30.09 848 25.04 7.3 45.2 52 -2 28.5
12:10 1019 30.09 848 25.04 7.3 45.1 51 -2.2 28.1
12:15 1019 30.09 848 25.04 7.7 45.8 50 -2 28.4
12:20 1019 30.09 848 25.04 7.6 45.6 50 -2.1 28.3
12:25 1019 30.09 848 25.04 7.6 45.7 51 -2 28.5
12:30 1019 30.09 848 25.04 7.5 45.4 52 -1.7 28.9
12:35 1019 30.09 848 25.04 7.5 45.5 52 -1.8 28.8
12:40 1019 30.09 848 25.04 7.9 46.2 50 -1.8 28.7
12:45 1019 30.09 848 25.04 7.6 45.6 51 -2 28.5
12:50 1019 30.09 848 25.04 7.5 45.5 51 -1.9 28.6
12:55 1018 30.06 848 25.04 7.8 46 51 -1.7 28.9
13:00 1018 30.06 847 25.01 8.2 46.8 47 -2.3 27.9
13:05 1018 30.06 847 25.01 9 48.3 47 -1.7 28.9
13:10 1018 30.06 847 25.01 8.6 47.5 48 -1.8 28.7
13:15 1018 30.06 847 25.01 8.8 47.9 47 -1.7 28.9
13:20 1018 30.06 847 25.01 8.7 47.7 48 -1.7 29
13:25 1017 30.03 847 25.01 9 48.3 48 -1.4 29.5
13:30 1017 30.03 847 25.01 8.8 47.9 49 -1.1 29.9
13:35 1017 30.03 847 25.01 7.6 45.8 53 -1.3 29.6
13:40 1017 30.03 847 25.01 8 46.5 48 -2.3 27.9
13:45 1017 30.03 847 25.01 8.1 46.5 51 -1.4 29.4
13:50 1017 30.03 847 25.01 8.4 47.1 48 -2 28.4
13:55 1017 30.03 847 25.01 8.9 48 46 -1.9 28.5
14:00 1017 30.03 846 24.98 9.4 48.9 46 -1.6 29.1
14:05 1017 30.03 846 24.98 9.4 49 46 -1.5 29.3
14:10 1017 30.03 846 24.98 8.7 47.7 48 -1.7 28.9
14:15 1017 30.03 846 24.98 8.6 47.5 48 -1.9 28.7
14:20 1017 30.03 846 24.98 8.8 47.8 48 -1.7 28.9
14:25 1017 30.03 846 24.98 8.5 47.3 49 -1.5 29.2
14:30 1017 30.03 846 24.98 8.2 46.8 50 -1.6 29.1
14:35 1017 30.03 846 24.98 7.5 45.5 53 -1.4 29.5
14:40 1017 30.03 846 24.98 6.4 43.4 56 -1.8 28.7
14:45 1017 30.03 846 24.98 5.8 42.5 57 -1.9 28.6
14:50 1017 30.03 846 24.98 6 42.8 57 -1.9 28.6
14:55 1017 30.03 846 24.98 6 42.9 56 -2.1 28.3
15:00 1016 30 846 24.98 6.1 42.9 55 -2.2 28
15:05 1016 30 845 24.95 6.2 43.1 55 -2.1 28.2
15:10 1016 30 845 24.95 6.4 43.5 55 -2 28.4
15:15 1016 30 845 24.95 6.9 44.5 53 -2 28.3
15:20 1016 30 845 24.95 7 44.6 53 -2 28.4
15:25 1016 30 845 24.95 7.3 45.1 52 -2.1 28.3
15:30 1016 30 845 24.95 7.6 45.6 51 -1.8 28.7
15:35 1016 30 845 24.95 7.9 46.1 49 -2.3 27.9
15:40 1016 30 845 24.95 8.3 46.9 47 -2.3 27.8
15:45 1016 30 845 24.95 8.4 47.2 47 -2.1 28.3
15:50 1016 30 845 24.95 8.3 46.9 48 -2.2 28.1
15:55 1016 30 845 24.95 8.2 46.8 47 -2.3 27.9
16:00 1016 30 845 24.95 8.1 46.6 47 -2.6 27.3
16:05 1016 30 845 24.95 8.2 46.8 44 -3.2 26.3
16:10 1016 30 845 24.95 8.2 46.8 46 -2.7 27.1
16:15 1016 30 845 24.95 8.1 46.7 45 -2.9 26.7
16:20 1016 30 845 24.95 8.1 46.5 45 -3.1 26.4
16:25 1016 30 845 24.95 8.2 46.7 45 -3 26.6
16:30 1016 30 845 24.95 8.1 46.6 47 -2.5 27.5
16:35 1016 30 845 24.95 7.9 46.3 46 -2.9 26.9
16:40 1016 30 845 24.95 7.8 46 48 -2.7 27.2
16:45 1016 30 845 24.95 7.5 45.6 48 -2.7 27.1
16:50 1016 30 845 24.95 7.4 45.3 49 -2.6 27.3
16:55 1015 29.97 845 24.95 7.4 45.2 46 -3.6 25.6
17:00 1015 29.97 845 24.95 7.7 45.8 45 -3.4 25.8
17:05 1015 29.97 844 24.92 7.8 46.1 45 -3.4 25.9
17:10 1015 29.97 844 24.92 7.6 45.7 46 -3.3 26
17:15 1015 29.97 844 24.92 7.5 45.4 44 -4 24.8
17:20 1015 29.97 844 24.92 7.7 45.9 43 -4.1 24.7
17:25 1015 29.97 844 24.92 7.9 46.3 42 -4.2 24.5
17:30 1015 29.97 844 24.92 8 46.4 43 -3.9 25
17:35 1015 29.97 844 24.92 7.8 46 44 -3.7 25.4
17:40 1015 29.97 844 24.92 7.5 45.5 45 -3.6 25.6
17:45 1015 29.97 844 24.92 7.3 45.1 46 -3.5 25.7
17:50 1015 29.97 844 24.92 7.1 44.7 46 -3.9 25
17:55 1015 29.97 844 24.92 7.4 45.3 43 -4.3 24.3
18:00 1015 29.97 844 24.92 7.7 45.9 43 -4.2 24.5
18:05 1015 29.97 844 24.92 7.7 45.8 44 -3.9 25.1
18:10 1015 29.97 844 24.92 7.4 45.4 44 -3.9 24.9
18:15 1014 29.94 844 24.92 7.4 45.4 45 -3.8 25.1
18:20 1014 29.94 844 24.92 7.5 45.4 44 -4 24.7
18:25 1014 29.94 844 24.92 7.4 45.3 45 -3.6 25.4
18:30 1014 29.94 844 24.92 7.2 45 45 -3.9 25
18:35 1014 29.94 844 24.92 7.6 45.6 43 -4.2 24.5
18:40 1015 29.97 844 24.92 8.2 46.8 43 -3.5 25.6
18:45 1015 29.97 844 24.92 8.6 47.5 42 -3.6 25.5
18:50 1015 29.97 844 24.92 8.2 46.8 47 -2.3 27.8
18:55 1015 29.97 844 24.92 7.9 46.3 47 -2.6 27.3
19:00 1015 29.97 844 24.92 7.8 46 50 -2 28.5
19:05 1015 29.97 844 24.92 7.6 45.7 50 -2.1 28.2
19:10 1015 29.97 844 24.92 7.4 45.2 50 -2.3 27.8
19:15 1015 29.97 844 24.92 7.1 44.8 53 -1.9 28.5
19:20 1014 29.94 844 24.92 6.8 44.3 54 -1.9 28.5
19:25 1014 29.94 844 24.92 6.7 44 54 -2 28.5
19:30 1014 29.94 843 24.89 6.6 43.9 54 -2 28.5
19:35 1014 29.94 843 24.89 6.5 43.8 55 -1.8 28.7
19:40 1014 29.94 844 24.92 6.4 43.6 55 -1.9 28.5
19:45 1014 29.94 844 24.92 6.4 43.5 56 -1.8 28.7
19:50 1015 29.97 844 24.92 6.4 43.6 55 -1.9 28.7
19:55 1015 29.97 844 24.92 6.3 43.4 55 -2.1 28.3
20:00 1015 29.97 844 24.92 6.3 43.4 55 -1.9 28.5
20:05 1015 29.97 844 24.92 6.1 42.9 56 -2.1 28.2
20:10 1015 29.97 844 24.92 6.2 43.1 53 -2.7 27.1
20:15 1015 29.97 844 24.92 6.4 43.5 52 -2.7 27.1
20:20 1015 29.97 844 24.92 6.4 43.6 51 -3 26.6
20:25 1015 29.97 844 24.92 6.4 43.5 51 -3 26.6
20:30 1015 29.97 844 24.92 6.4 43.5 52 -2.8 27
20:35 1015 29.97 844 24.92 6.3 43.3 53 -2.6 27.3
20:40 1015 29.97 844 24.92 6.2 43.1 52 -2.9 26.9
20:45 1015 29.97 845 24.95 6.3 43.4 52 -2.9 26.8
20:50 1015 29.97 845 24.95 6.2 43.1 53 -2.8 26.9
20:55 1015 29.97 844 24.92 5.8 42.4 53 -3 26.7
21:00 1015 29.97 844 24.92 5.7 42.2 54 -3 26.6
21:05 1015 29.97 844 24.92 5.7 42.3 54 -2.9 26.8
21:10 1015 29.97 844 24.92 5.6 42.1 55 -2.8 27
21:15 1015 29.97 844 24.92 5.5 41.9 56 -2.6 27.2
21:20 1015 29.97 845 24.95 5.3 41.6 57 -2.6 27.4
21:25 1015 29.97 845 24.95 5.2 41.4 58 -2.4 27.7
21:30 1015 29.97 845 24.95 5.1 41.2 59 -2.2 28
21:35 1015 29.97 845 24.95 5.3 41.5 58 -2.3 27.9
21:40 1015 29.97 845 24.95 5.3 41.6 59 -2 28.4
21:45 1015 29.97 845 24.95 5.1 41.1 61 -1.9 28.6
21:50 1015 29.97 845 24.95 4.8 40.7 62 -1.8 28.8
21:55 1016 30 845 24.95 4.6 40.3 64 -1.7 28.9
22:00 1016 30 845 24.95 4.4 40 64 -1.7 29
22:05 1016 30 845 24.95 4.4 40 65 -1.6 29.1
22:10 1016 30 845 24.95 4.4 39.9 66 -1.4 29.5
22:15 1015 29.97 845 24.95 4.3 39.8 67 -1.3 29.7
22:20 1015 29.97 845 24.95 4.2 39.6 68 -1.2 29.8
22:25 1016 30 845 24.95 4.1 39.4 68 -1.2 29.9
22:30 1016 30 845 24.95 4.1 39.4 69 -1.1 30
22:35 1016 30 845 24.95 4.1 39.4 69 -1.1 30.1
22:40 1016 30 845 24.95 4.1 39.4 69 -1 30.2
22:45 1016 30 845 24.95 4.1 39.3 70 -0.9 30.4
22:50 1016 30 845 24.95 3.9 39.1 71 -0.9 30.4
22:55 1016 30 845 24.95 3.8 38.9 71 -0.9 30.4
23:00 1016 30 845 24.95 3.7 38.7 72 -0.9 30.4
23:05 1016 30 845 24.95 3.6 38.4 72 -0.9 30.3
23:10 1016 30 845 24.95 3.6 38.5 72 -0.9 30.4
23:15 1016 30 845 24.95 3.5 38.3 73 -1 30.3
23:20 1016 30 845 24.95 3.6 38.4 71 -1.2 29.9
23:25 1016 30 845 24.95 3.7 38.7 70 -1.3 29.6
23:30 1016 30 845 24.95 3.9 39 67 -1.6 29
23:35 1016 30 845 24.95 4.1 39.4 66 -1.7 28.9
23:40 1016 30 845 24.95 4.3 39.7 64 -1.9 28.5
23:45 1016 30 845 24.95 4.4 40 61 -2.5 27.6
23:50 1016 30 845 24.95 4.7 40.5 59 -2.5 27.5
23:55 1016 30 845 24.95 4.8 40.6 58 -2.8 27
24:00 1016 30 845 24.95 4.9 40.9 57 -2.9 26.8